createdAt,value
2019-03-09T00:01:17.883Z,9.60
2019-03-09T00:03:47.456Z,9.60
2019-03-09T00:06:17.489Z,9.60
2019-03-09T00:08:47.104Z,9.60
2019-03-09T00:11:16.855Z,9.50
2019-03-09T00:13:46.722Z,9.50
2019-03-09T00:16:16.288Z,9.50
2019-03-09T00:18:46.008Z,9.50
2019-03-09T00:21:15.691Z,9.50
2019-03-09T00:24:02.327Z,9.50
2019-03-09T00:26:36.236Z,9.40
2019-03-09T00:29:10.542Z,9.50
2019-03-09T00:31:44.811Z,9.50
2019-03-09T00:34:14.482Z,9.40
2019-03-09T00:36:44.169Z,9.50
2019-03-09T00:39:14.190Z,9.50
2019-03-09T00:41:45.302Z,9.50
2019-03-09T00:44:14.900Z,9.50
2019-03-09T00:46:44.522Z,9.50
2019-03-09T00:49:13.946Z,9.40
2019-03-09T00:51:43.654Z,9.50
2019-03-09T00:54:15.069Z,9.50
2019-03-09T00:56:44.420Z,9.50
2019-03-09T00:59:14.110Z,9.50
2019-03-09T01:01:43.604Z,9.50
2019-03-09T01:04:13.541Z,9.50
2019-03-09T01:06:43.175Z,9.50
2019-03-09T01:09:13.025Z,9.40
2019-03-09T01:11:42.793Z,9.40
2019-03-09T01:14:12.540Z,9.50
2019-03-09T01:16:42.039Z,9.40
2019-03-09T01:19:11.580Z,9.40
2019-03-09T01:21:41.104Z,9.40
2019-03-09T01:24:10.708Z,9.40
2019-03-09T01:26:40.256Z,9.40
2019-03-09T01:29:09.800Z,9.40
2019-03-09T01:31:39.473Z,9.40
2019-03-09T01:34:08.999Z,9.40
2019-03-09T01:36:38.586Z,9.40
2019-03-09T01:39:08.167Z,9.40
2019-03-09T01:41:37.818Z,9.40
2019-03-09T01:44:07.688Z,9.40
2019-03-09T01:46:37.238Z,9.40
2019-03-09T01:49:06.882Z,9.40
2019-03-09T01:51:36.468Z,9.40
2019-03-09T01:54:06.075Z,9.40
2019-03-09T01:56:35.707Z,9.50
2019-03-09T01:59:05.233Z,9.50
2019-03-09T02:01:34.822Z,9.50
2019-03-09T02:04:04.332Z,9.50
2019-03-09T02:06:33.854Z,9.50
2019-03-09T02:09:05.159Z,9.50
2019-03-09T02:11:34.831Z,9.50
2019-03-09T02:14:04.471Z,9.50
2019-03-09T02:16:34.010Z,9.60
2019-03-09T02:19:03.685Z,9.60
2019-03-09T02:21:33.053Z,9.70
2019-03-09T02:24:02.602Z,9.70
2019-03-09T02:26:32.035Z,9.80
2019-03-09T02:29:01.576Z,9.80
2019-03-09T02:31:31.159Z,9.80
2019-03-09T02:34:00.885Z,9.80
2019-03-09T02:36:30.706Z,9.80
2019-03-09T02:39:07.609Z,9.80
2019-03-09T02:41:37.295Z,9.80
2019-03-09T02:44:06.914Z,9.90
2019-03-09T02:46:36.484Z,9.90
2019-03-09T02:49:05.920Z,9.90
2019-03-09T02:51:35.346Z,9.90
2019-03-09T02:54:04.770Z,9.90
2019-03-09T02:56:34.432Z,10.00
2019-03-09T02:59:04.223Z,10.00
2019-03-09T03:01:38.151Z,10.00
2019-03-09T03:04:07.603Z,10.00
2019-03-09T03:06:37.280Z,10.00
2019-03-09T03:09:07.298Z,10.00
2019-03-09T03:11:37.516Z,10.00
2019-03-09T03:14:07.174Z,10.10
2019-03-09T03:16:36.680Z,10.10
2019-03-09T03:19:06.279Z,10.10
2019-03-09T03:21:35.713Z,10.10
2019-03-09T03:24:05.309Z,10.10
2019-03-09T03:26:34.814Z,10.10
2019-03-09T03:29:04.450Z,10.10
2019-03-09T03:31:34.084Z,10.20
2019-03-09T03:34:03.609Z,10.20
2019-03-09T03:36:33.327Z,10.20
2019-03-09T03:39:02.899Z,10.20
2019-03-09T03:41:32.667Z,10.30
2019-03-09T03:44:02.229Z,10.30
2019-03-09T03:46:31.954Z,10.30
2019-03-09T03:49:03.766Z,10.40
2019-03-09T03:51:32.584Z,10.40
2019-03-09T03:54:02.282Z,10.40
2019-03-09T03:56:31.940Z,10.40
2019-03-09T03:59:01.590Z,10.50
2019-03-09T04:01:31.220Z,10.50
2019-03-09T04:04:00.804Z,10.50
2019-03-09T04:06:30.598Z,10.50
2019-03-09T04:09:00.492Z,10.50
2019-03-09T04:11:30.268Z,10.50
2019-03-09T04:13:59.879Z,10.50
2019-03-09T04:16:29.402Z,10.50
2019-03-09T04:18:59.218Z,10.50
2019-03-09T04:21:28.790Z,10.50
2019-03-09T04:23:58.344Z,10.60
2019-03-09T04:26:27.926Z,10.50
2019-03-09T04:28:57.428Z,10.60
2019-03-09T04:31:27.130Z,10.60
2019-03-09T04:33:56.717Z,10.60
2019-03-09T04:36:26.171Z,10.70
2019-03-09T04:38:55.945Z,10.70
2019-03-09T04:41:25.491Z,10.80
2019-03-09T04:43:54.976Z,10.80
2019-03-09T04:46:24.593Z,10.80
2019-03-09T04:48:54.097Z,10.80
2019-03-09T04:51:23.720Z,10.90
2019-03-09T04:53:53.448Z,10.80
2019-03-09T04:56:22.956Z,10.90
2019-03-09T04:58:52.507Z,10.80
2019-03-09T05:01:22.203Z,10.80
2019-03-09T05:03:57.423Z,10.90
2019-03-09T05:06:27.018Z,10.80
2019-03-09T05:08:59.631Z,10.90
2019-03-09T05:11:29.323Z,10.80
2019-03-09T05:13:58.877Z,10.80
2019-03-09T05:16:28.384Z,10.80
2019-03-09T05:18:57.935Z,10.80
2019-03-09T05:21:27.375Z,10.80
2019-03-09T05:23:56.859Z,10.70
2019-03-09T05:26:26.389Z,10.70
2019-03-09T05:28:55.930Z,10.70
2019-03-09T05:31:25.696Z,10.70
2019-03-09T05:33:55.126Z,10.70
2019-03-09T05:36:24.671Z,10.70
2019-03-09T05:38:54.328Z,10.70
2019-03-09T05:41:23.822Z,10.70
2019-03-09T05:43:54.827Z,10.60
2019-03-09T05:46:24.359Z,10.60
2019-03-09T05:48:53.900Z,10.70
2019-03-09T05:51:23.548Z,10.60
2019-03-09T05:53:53.183Z,10.60
2019-03-09T05:56:22.636Z,10.70
2019-03-09T05:58:52.294Z,10.60
2019-03-09T06:01:21.929Z,10.60
2019-03-09T06:03:51.431Z,10.70
2019-03-09T06:06:21.120Z,10.60
2019-03-09T06:08:51.781Z,10.60
2019-03-09T06:11:21.627Z,10.60
2019-03-09T06:13:51.218Z,10.60
2019-03-09T06:16:20.671Z,10.60
2019-03-09T06:18:50.214Z,10.70
2019-03-09T06:21:19.637Z,10.70
2019-03-09T06:23:49.126Z,10.70
2019-03-09T06:26:18.728Z,10.70
2019-03-09T06:28:48.716Z,10.70
2019-03-09T06:31:18.279Z,10.70
2019-03-09T06:33:47.771Z,10.70
2019-03-09T06:36:22.977Z,10.70
2019-03-09T06:38:58.238Z,10.80
2019-03-09T06:41:59.003Z,10.80
2019-03-09T06:44:28.591Z,10.80
2019-03-09T06:46:58.186Z,10.80
2019-03-09T06:49:27.742Z,10.80
2019-03-09T06:51:57.440Z,10.90
2019-03-09T06:54:27.146Z,10.90
2019-03-09T06:56:56.760Z,10.90
2019-03-09T06:59:26.376Z,10.90
2019-03-09T07:01:55.923Z,10.90
2019-03-09T07:04:25.500Z,11.00
2019-03-09T07:06:55.092Z,11.00
2019-03-09T07:09:24.607Z,10.90
2019-03-09T07:11:54.220Z,10.90
2019-03-09T07:14:55.096Z,10.90
2019-03-09T07:17:24.664Z,11.00
2019-03-09T07:19:54.160Z,11.00
2019-03-09T07:22:23.728Z,11.00
2019-03-09T07:24:53.554Z,11.10
2019-03-09T07:27:23.104Z,11.00
2019-03-09T07:29:52.826Z,11.00
2019-03-09T07:32:22.392Z,11.10
2019-03-09T07:34:52.056Z,11.10
2019-03-09T07:37:21.686Z,11.20
2019-03-09T07:39:51.226Z,11.20
2019-03-09T07:42:20.717Z,11.20
2019-03-09T07:44:50.242Z,11.20
2019-03-09T07:47:20.032Z,11.20
2019-03-09T07:49:49.474Z,11.20
2019-03-09T07:52:22.022Z,11.20
2019-03-09T07:54:52.170Z,11.30
2019-03-09T07:57:22.061Z,11.20
2019-03-09T07:59:51.854Z,11.30
2019-03-09T08:02:21.384Z,11.30
2019-03-09T08:04:50.986Z,11.30
2019-03-09T08:07:20.526Z,11.30
2019-03-09T08:09:50.160Z,11.30
2019-03-09T08:12:19.986Z,11.30
2019-03-09T08:14:49.654Z,11.30
2019-03-09T08:17:19.154Z,11.40
2019-03-09T08:19:48.784Z,11.40
2019-03-09T08:22:18.470Z,11.40
2019-03-09T08:24:48.120Z,11.50
2019-03-09T08:27:17.918Z,11.50
2019-03-09T08:29:47.998Z,11.50
2019-03-09T08:32:17.521Z,11.50
2019-03-09T08:34:47.100Z,11.50
2019-03-09T08:37:16.749Z,11.50
2019-03-09T08:39:46.552Z,11.60
2019-03-09T08:42:16.204Z,11.60
2019-03-09T08:44:45.958Z,11.70
2019-03-09T08:47:15.621Z,11.60
2019-03-09T08:49:45.050Z,11.70
2019-03-09T08:52:14.678Z,11.70
2019-03-09T08:54:44.226Z,11.70
2019-03-09T08:57:13.705Z,11.70
2019-03-09T08:59:43.374Z,11.70
2019-03-09T09:02:13.147Z,11.70
2019-03-09T09:04:42.683Z,11.70
2019-03-09T09:07:12.279Z,11.70
2019-03-09T09:09:41.954Z,11.70
2019-03-09T09:12:11.514Z,11.70
2019-03-09T09:14:41.180Z,11.70
2019-03-09T09:17:10.770Z,11.80
2019-03-09T09:19:40.336Z,11.70
2019-03-09T09:22:09.961Z,11.70
2019-03-09T09:24:39.606Z,11.80
2019-03-09T09:27:09.154Z,11.80
2019-03-09T09:29:38.792Z,11.80
2019-03-09T09:32:08.321Z,11.80
2019-03-09T09:34:37.892Z,11.80
2019-03-09T09:37:07.756Z,11.90
2019-03-09T09:39:37.384Z,11.90
2019-03-09T09:42:07.062Z,11.90
2019-03-09T09:44:36.888Z,11.90
2019-03-09T09:47:06.417Z,11.90
2019-03-09T09:49:36.131Z,11.90
2019-03-09T09:52:05.630Z,11.90
2019-03-09T09:54:35.540Z,11.90
2019-03-09T09:57:05.269Z,11.90
2019-03-09T09:59:34.788Z,11.90
2019-03-09T10:02:04.447Z,12.00
2019-03-09T10:04:33.942Z,12.00
2019-03-09T10:07:03.520Z,12.00
2019-03-09T10:09:33.138Z,12.10
2019-03-09T10:12:02.800Z,12.10
2019-03-09T10:14:32.486Z,12.20
2019-03-09T10:17:02.037Z,12.20
2019-03-09T10:19:31.790Z,12.20
2019-03-09T10:22:01.431Z,12.20
2019-03-09T10:24:31.475Z,12.20
2019-03-09T10:27:01.040Z,12.30
2019-03-09T10:29:30.538Z,12.40
2019-03-09T10:32:00.212Z,12.40
2019-03-09T10:34:29.668Z,12.50
2019-03-09T10:36:59.259Z,12.50
2019-03-09T10:39:28.786Z,12.50
2019-03-09T10:41:58.485Z,12.50
2019-03-09T10:44:28.182Z,12.50
2019-03-09T10:46:57.733Z,12.60
2019-03-09T10:49:27.303Z,12.60
2019-03-09T10:51:56.844Z,12.70
2019-03-09T10:54:35.808Z,12.80
2019-03-09T10:56:57.796Z,12.80
2019-03-09T10:59:27.199Z,12.80
2019-03-09T11:01:56.714Z,12.80
2019-03-09T11:04:27.789Z,12.80
2019-03-09T11:06:57.721Z,12.70
2019-03-09T11:09:27.315Z,12.60
2019-03-09T11:11:56.982Z,12.70
2019-03-09T11:14:26.391Z,12.70
2019-03-09T11:16:55.904Z,12.80
2019-03-09T11:19:25.426Z,12.80
2019-03-09T11:21:55.032Z,12.80
2019-03-09T11:24:24.730Z,12.80
2019-03-09T11:26:54.154Z,12.90
2019-03-09T11:29:23.728Z,12.90
2019-03-09T11:31:53.188Z,13.00
2019-03-09T11:34:22.917Z,13.00
2019-03-09T11:36:52.460Z,13.00
2019-03-09T11:39:21.935Z,13.00
2019-03-09T11:41:51.521Z,13.00
2019-03-09T11:44:21.095Z,13.00
2019-03-09T11:46:50.661Z,13.10
2019-03-09T11:49:20.117Z,13.10
2019-03-09T11:51:49.728Z,13.20
2019-03-09T11:54:19.295Z,13.20
2019-03-09T11:56:48.984Z,13.30
2019-03-09T11:59:18.548Z,13.30
2019-03-09T12:01:48.152Z,13.30
2019-03-09T12:04:17.583Z,13.20
2019-03-09T12:06:47.159Z,13.20
2019-03-09T12:09:16.799Z,13.30
2019-03-09T12:11:52.040Z,13.30
2019-03-09T12:14:21.463Z,13.30
2019-03-09T12:16:50.975Z,13.30
2019-03-09T12:19:20.659Z,13.30
2019-03-09T12:21:50.157Z,13.20
2019-03-09T12:24:20.529Z,13.10
2019-03-09T12:26:51.671Z,13.10
2019-03-09T12:29:21.415Z,13.10
2019-03-09T12:31:50.919Z,13.00
2019-03-09T12:34:20.646Z,12.80
2019-03-09T12:36:50.306Z,12.70
2019-03-09T12:39:19.949Z,12.70
2019-03-09T12:41:49.498Z,12.70
2019-03-09T12:44:19.047Z,12.70
2019-03-09T12:46:48.891Z,12.70
2019-03-09T12:49:18.621Z,12.70
2019-03-09T12:51:47.979Z,12.70
2019-03-09T12:54:17.505Z,12.80
2019-03-09T12:59:34.430Z,12.80
2019-03-09T13:02:13.491Z,12.80
2019-03-09T13:04:43.001Z,12.70
2019-03-09T13:10:00.317Z,12.80
2019-03-09T13:12:29.845Z,12.80
2019-03-09T13:17:46.722Z,13.00
2019-03-09T13:20:23.443Z,13.00
2019-03-09T13:23:05.114Z,13.00
2019-03-09T13:25:34.613Z,13.10
2019-03-09T13:28:04.354Z,13.10
2019-03-09T13:30:33.861Z,13.10
2019-03-09T13:33:03.563Z,13.10
2019-03-09T13:35:33.161Z,13.10
2019-03-09T13:38:02.763Z,13.10
2019-03-09T13:40:32.357Z,13.10
2019-03-09T13:43:02.005Z,13.20
2019-03-09T13:45:31.623Z,13.20
2019-03-09T13:48:01.288Z,13.30
2019-03-09T13:50:30.843Z,13.30
2019-03-09T13:53:13.179Z,13.30
2019-03-09T13:55:48.715Z,13.30
2019-03-09T13:58:18.323Z,13.20
2019-03-09T14:00:47.837Z,13.10
2019-03-09T14:03:17.389Z,13.10
2019-03-09T14:05:47.031Z,13.20
2019-03-09T14:08:16.579Z,13.20
2019-03-09T14:10:46.167Z,13.20
2019-03-09T14:13:15.806Z,13.20
2019-03-09T14:15:45.439Z,13.20
2019-03-09T14:21:09.024Z,13.20
2019-03-09T14:23:38.815Z,13.30
2019-03-09T14:26:08.391Z,13.30
2019-03-09T14:28:37.967Z,13.30
2019-03-09T14:31:07.543Z,13.40
2019-03-09T14:33:37.093Z,13.40
2019-03-09T14:36:06.735Z,13.40
2019-03-09T14:38:36.597Z,13.50
2019-03-09T14:41:06.004Z,13.50
2019-03-09T14:43:35.717Z,13.50
2019-03-09T14:46:05.371Z,13.50
2019-03-09T14:48:34.984Z,13.40
2019-03-09T14:51:04.709Z,13.40
2019-03-09T14:53:34.275Z,13.40
2019-03-09T14:56:03.905Z,13.50
2019-03-09T14:58:34.925Z,13.60
2019-03-09T15:01:06.273Z,13.60
2019-03-09T15:03:35.995Z,13.70
2019-03-09T15:06:05.601Z,13.70
2019-03-09T15:08:35.245Z,13.70
2019-03-09T15:11:04.825Z,13.70
2019-03-09T15:13:34.631Z,13.80
2019-03-09T15:16:09.845Z,13.80
2019-03-09T15:18:49.367Z,13.90
2019-03-09T15:27:15.721Z,13.90
2019-03-09T15:30:03.410Z,13.90
2019-03-09T15:32:33.187Z,13.80
2019-03-09T15:35:02.743Z,13.80
2019-03-09T15:37:32.373Z,13.80
2019-03-09T15:40:02.189Z,13.80
2019-03-09T15:42:31.916Z,13.80
2019-03-09T15:45:01.334Z,13.80
2019-03-09T15:47:30.953Z,13.80
2019-03-09T15:50:00.555Z,13.80
2019-03-09T16:01:10.951Z,13.60
2019-03-09T16:03:40.815Z,13.60
2019-03-09T16:06:10.429Z,13.40
2019-03-09T16:08:40.299Z,13.40
2019-03-09T16:11:20.187Z,13.30
2019-03-09T16:13:49.669Z,13.40
2019-03-09T16:16:19.289Z,13.40
2019-03-09T16:18:48.864Z,13.30
2019-03-09T16:21:18.320Z,13.30
2019-03-09T16:23:47.869Z,13.30
2019-03-09T16:26:17.428Z,13.30
2019-03-09T16:28:46.950Z,13.30
2019-03-09T16:31:16.567Z,13.30
2019-03-09T16:33:46.214Z,13.20
2019-03-09T16:36:16.072Z,13.20
2019-03-09T16:38:45.675Z,13.30
2019-03-09T16:41:15.209Z,13.30
2019-03-09T16:43:44.705Z,13.30
2019-03-09T16:46:14.355Z,13.30
2019-03-09T16:48:44.839Z,13.40
2019-03-09T16:51:14.384Z,13.40
2019-03-09T16:53:43.837Z,13.30
2019-03-09T16:56:13.435Z,13.30
2019-03-09T16:58:43.000Z,13.30
2019-03-09T17:01:12.543Z,13.30
2019-03-09T17:03:42.080Z,13.30
2019-03-09T17:06:11.769Z,13.30
2019-03-09T17:08:41.366Z,13.20
2019-03-09T17:11:10.937Z,13.20
2019-03-09T17:13:40.524Z,13.20
2019-03-09T17:16:10.182Z,13.20
2019-03-09T17:18:39.671Z,13.20
2019-03-09T17:21:09.127Z,13.10
2019-03-09T17:23:38.765Z,13.10
2019-03-09T17:26:08.212Z,13.00
2019-03-09T17:28:37.734Z,12.90
2019-03-09T17:31:07.444Z,12.80
2019-03-09T17:33:37.268Z,12.70
2019-03-09T17:36:06.790Z,12.60
2019-03-09T17:38:36.255Z,12.60
2019-03-09T17:41:05.919Z,12.50
2019-03-09T17:43:35.549Z,12.50
2019-03-09T17:46:05.188Z,12.40
2019-03-09T17:48:34.747Z,12.30
2019-03-09T17:51:04.316Z,12.30
2019-03-09T17:53:34.043Z,12.20
2019-03-09T17:56:05.031Z,12.20
2019-03-09T17:58:34.546Z,12.10
2019-03-09T18:01:04.112Z,12.10
2019-03-09T18:03:33.597Z,12.00
2019-03-09T18:06:03.056Z,12.00
2019-03-09T18:08:32.528Z,12.00
2019-03-09T18:11:05.414Z,12.10
2019-03-09T18:13:34.907Z,12.10
2019-03-09T18:16:04.641Z,12.10
2019-03-09T18:18:34.406Z,12.10
2019-03-09T18:21:03.938Z,12.10
2019-03-09T18:23:33.551Z,12.20
2019-03-09T18:26:03.242Z,12.20
2019-03-09T18:28:32.756Z,12.20
2019-03-09T18:31:02.421Z,12.30
2019-03-09T18:33:32.046Z,12.40
2019-03-09T18:36:01.658Z,12.40
2019-03-09T18:38:31.258Z,12.40
2019-03-09T18:41:00.884Z,12.40
2019-03-09T18:43:30.535Z,12.40
2019-03-09T18:46:00.062Z,12.40
2019-03-09T18:48:29.618Z,12.30
2019-03-09T18:50:59.195Z,12.20
2019-03-09T18:53:28.742Z,12.20
2019-03-09T18:55:59.419Z,12.10
2019-03-09T18:58:29.434Z,12.10
2019-03-09T19:00:59.016Z,12.10
2019-03-09T19:03:28.586Z,12.10
2019-03-09T19:05:58.130Z,12.10
2019-03-09T19:08:27.632Z,12.10
2019-03-09T19:10:57.186Z,12.10
2019-03-09T19:13:26.764Z,12.10
2019-03-09T19:15:56.258Z,12.10
2019-03-09T19:18:25.896Z,12.10
2019-03-09T19:20:55.402Z,12.10
2019-03-09T19:23:24.982Z,12.10
2019-03-09T19:25:54.556Z,12.00
2019-03-09T19:28:24.069Z,12.00
2019-03-09T19:30:53.680Z,12.00
2019-03-09T19:33:23.204Z,12.00
2019-03-09T19:35:52.691Z,11.90
2019-03-09T19:38:22.262Z,11.90
2019-03-09T19:40:51.752Z,11.90
2019-03-09T19:43:21.420Z,11.90
2019-03-09T19:45:50.950Z,11.90
2019-03-09T19:48:20.468Z,11.80
2019-03-09T19:50:50.178Z,11.80
2019-03-09T19:53:19.820Z,11.80
2019-03-09T19:55:49.448Z,11.80
2019-03-09T19:58:19.104Z,11.80
2019-03-09T20:00:48.616Z,11.80
2019-03-09T20:03:18.083Z,11.80
2019-03-09T20:05:47.797Z,11.80
2019-03-09T20:08:17.584Z,11.80
2019-03-09T20:10:47.250Z,11.80
2019-03-09T20:13:16.739Z,11.80
2019-03-09T20:15:46.309Z,11.80
2019-03-09T20:18:15.906Z,11.80
2019-03-09T20:20:45.452Z,11.70
2019-03-09T20:23:15.024Z,11.70
2019-03-09T20:25:44.558Z,11.70
2019-03-09T20:28:14.124Z,11.70
2019-03-09T20:30:43.792Z,11.70
2019-03-09T20:33:13.298Z,11.70
2019-03-09T20:35:43.010Z,11.60
2019-03-09T20:38:12.528Z,11.60
2019-03-09T20:40:42.247Z,11.60
2019-03-09T20:43:11.810Z,11.60
2019-03-09T20:45:41.438Z,11.50
2019-03-09T20:48:11.087Z,11.50
2019-03-09T20:50:40.740Z,11.50
2019-03-09T20:53:10.422Z,11.50
2019-03-09T20:55:40.032Z,11.50
2019-03-09T20:58:09.792Z,11.50
2019-03-09T21:00:39.578Z,11.50
2019-03-09T21:03:09.197Z,11.50
2019-03-09T21:05:38.787Z,11.40
2019-03-09T21:08:08.504Z,11.40
2019-03-09T21:10:38.058Z,11.40
2019-03-09T21:13:13.424Z,11.40
2019-03-09T21:15:42.989Z,11.30
2019-03-09T21:18:12.705Z,11.30
2019-03-09T21:20:42.322Z,11.30
2019-03-09T21:23:11.854Z,11.30
2019-03-09T21:25:41.478Z,11.30
2019-03-09T21:28:11.064Z,11.30
2019-03-09T21:30:40.621Z,11.20
2019-03-09T21:33:10.247Z,11.20
2019-03-09T21:35:41.076Z,11.20
2019-03-09T21:38:10.728Z,11.20
2019-03-09T21:40:40.401Z,11.10
2019-03-09T21:43:09.973Z,11.10
2019-03-09T21:45:39.631Z,11.10
2019-03-09T21:48:09.132Z,11.10
2019-03-09T21:50:38.638Z,11.10
2019-03-09T21:53:08.120Z,11.10
2019-03-09T21:55:37.782Z,11.00
2019-03-09T21:58:07.346Z,11.00
2019-03-09T22:00:37.000Z,11.00
2019-03-09T22:03:06.624Z,10.90
2019-03-09T22:05:36.557Z,10.90
2019-03-09T22:08:06.124Z,10.90
2019-03-09T22:10:35.796Z,10.90
2019-03-09T22:13:05.522Z,10.90
2019-03-09T22:15:35.141Z,10.90
2019-03-09T22:18:05.025Z,10.90
2019-03-09T22:20:34.456Z,10.90
2019-03-09T22:23:04.266Z,10.90
2019-03-09T22:25:33.850Z,10.90
2019-03-09T22:28:03.469Z,10.90
2019-03-09T22:30:33.212Z,10.90
2019-03-09T22:33:04.545Z,10.90
2019-03-09T22:35:34.028Z,10.90
2019-03-09T22:38:03.622Z,10.90
2019-03-09T22:40:33.407Z,10.90
2019-03-09T22:43:03.041Z,10.90
2019-03-09T22:45:32.822Z,10.90
2019-03-09T22:48:02.391Z,10.90
2019-03-09T22:50:31.903Z,10.90
2019-03-09T22:53:01.410Z,10.80
2019-03-09T22:55:31.050Z,10.80
2019-03-09T22:58:00.656Z,10.80
2019-03-09T23:00:31.564Z,10.80
2019-03-09T23:03:01.113Z,10.80
2019-03-09T23:05:30.698Z,10.80
2019-03-09T23:08:00.205Z,10.70
2019-03-09T23:10:29.816Z,10.70
2019-03-09T23:12:59.390Z,10.70
2019-03-09T23:15:28.889Z,10.70
2019-03-09T23:17:58.510Z,10.70
2019-03-09T23:20:28.115Z,10.70
2019-03-09T23:22:58.581Z,10.70
2019-03-09T23:25:28.100Z,10.70
2019-03-09T23:27:57.726Z,10.70
2019-03-09T23:30:27.364Z,10.70
2019-03-09T23:32:57.121Z,10.70
2019-03-09T23:35:26.678Z,10.70
2019-03-09T23:37:56.233Z,10.80
2019-03-09T23:40:25.925Z,10.70
2019-03-09T23:42:55.407Z,10.70
2019-03-09T23:45:26.763Z,10.70
2019-03-09T23:47:56.401Z,10.70
2019-03-09T23:50:26.125Z,10.70
2019-03-09T23:52:55.876Z,10.70
2019-03-09T23:55:25.459Z,10.70
2019-03-09T23:57:54.975Z,10.70
